Time;durP1;ratioP1;P1;durP2;ratioP2;P2;SDS_P1;SDS_P2;PMS_P1;PMS_P2;Temp;Humidity;BMP_temperature;BMP_pressure;BME280_temperature;BME280_humidity;BME280_pressure;Samples;Min_cycle;Max_cycle;Signal;HPM_P1;HPM_P2
2023/01/29 00:01:51;;;;;;;27.17;12.45;;;4.80;89.50;;;;;;5084858;28;20032;-56
2023/01/29 00:04:17;;;;;;;18.60;11.98;;;4.80;89.50;;;;;;5068295;28;20034;-56
2023/01/29 00:06:43;;;;;;;19.85;11.38;;;4.80;89.50;;;;;;5085098;28;20032;-56
2023/01/29 00:09:09;;;;;;;17.10;10.77;;;4.80;89.50;;;;;;5085092;28;20111;-56
2023/01/29 00:11:34;;;;;;;19.17;11.20;;;4.80;89.40;;;;;;5086461;28;20032;-56
2023/01/29 00:14:00;;;;;;;23.90;11.90;;;4.80;89.50;;;;;;5086219;28;20452;-56
2023/01/29 00:16:25;;;;;;;24.88;11.27;;;4.70;89.50;;;;;;5085027;28;20035;-56
2023/01/29 00:18:51;;;;;;;22.17;11.75;;;4.70;89.60;;;;;;5084668;28;20024;-56
2023/01/29 00:21:18;;;;;;;20.42;11.48;;;4.70;89.50;;;;;;5084618;28;20028;-57
2023/01/29 00:23:44;;;;;;;20.67;11.40;;;4.70;89.70;;;;;;5084753;28;20048;-56
2023/01/29 00:26:09;;;;;;;24.02;12.32;;;4.70;89.70;;;;;;5084625;28;20021;-56
2023/01/29 00:28:35;;;;;;;21.15;11.68;;;4.70;89.60;;;;;;5085923;28;20025;-56
2023/01/29 00:31:12;;;;;;;21.42;11.10;;;4.70;89.60;;;;;;5086156;28;20485;-56
2023/01/29 00:33:37;;;;;;;17.65;11.27;;;4.60;89.60;;;;;;5084598;28;20157;-57
2023/01/29 00:36:04;;;;;;;21.08;11.10;;;4.70;89.70;;;;;;5083609;28;20121;-56
2023/01/29 00:38:29;;;;;;;17.85;11.18;;;4.60;89.70;;;;;;5084511;28;20048;-56
2023/01/29 00:46:23;;;;;;;19.15;10.68;;;4.60;89.90;;;;;;5085749;28;20115;-56
2023/01/29 00:48:49;;;;;;;15.93;10.25;;;4.60;89.80;;;;;;5084103;28;20081;-56
2023/01/29 00:51:14;;;;;;;17.85;11.75;;;4.60;89.90;;;;;;5085802;28;20051;-57
2023/01/29 00:53:40;;;;;;;17.23;10.50;;;4.60;89.90;;;;;;5084334;28;20025;-56
2023/01/29 00:56:06;;;;;;;16.60;10.68;;;4.60;89.90;;;;;;5084269;28;20039;-56
2023/01/29 00:58:33;;;;;;;21.67;10.93;;;4.60;90.00;;;;;;5084059;28;20051;-57
2023/01/29 01:01:01;;;;;;;20.08;11.18;;;4.60;90.00;;;;;;5067875;28;20069;-57
2023/01/29 01:03:28;;;;;;;16.77;10.57;;;4.50;90.00;;;;;;5083928;28;20052;-56
2023/01/29 01:06:07;;;;;;;24.23;11.68;;;4.60;90.00;;;;;;5084143;28;20033;-56
2023/01/29 01:11:18;;;;;;;18.02;10.60;;;4.50;89.90;;;;;;5084431;28;20059;-56
2023/01/29 01:13:43;;;;;;;18.15;10.32;;;4.50;89.90;;;;;;5085128;28;20434;-56
2023/01/29 01:16:13;;;;;;;17.63;10.18;;;4.50;90.00;;;;;;5083744;28;20136;-56
2023/01/29 01:18:39;;;;;;;17.58;11.15;;;4.50;90.00;;;;;;5083844;28;20032;-57
2023/01/29 01:21:05;;;;;;;17.15;10.80;;;4.50;90.00;;;;;;5083992;28;20024;-56
2023/01/29 01:23:30;;;;;;;16.50;11.10;;;4.50;90.00;;;;;;5083499;28;20020;-56
2023/01/29 01:25:56;;;;;;;17.38;10.88;;;4.50;90.00;;;;;;5085273;28;20028;-57
2023/01/29 01:28:21;;;;;;;19.95;10.88;;;4.50;90.00;;;;;;5083697;28;20494;-56
2023/01/29 01:30:47;;;;;;;17.35;11.32;;;4.50;90.00;;;;;;5083727;28;20032;-56
2023/01/29 01:33:12;;;;;;;15.32;10.95;;;4.50;90.00;;;;;;5084012;28;20040;-57
2023/01/29 01:35:38;;;;;;;14.45;10.10;;;4.50;90.00;;;;;;5085613;28;20072;-56
2023/01/29 01:38:04;;;;;;;13.90;10.05;;;4.50;90.00;;;;;;5083581;28;20033;-56
2023/01/29 01:40:29;;;;;;;17.83;11.23;;;4.50;90.00;;;;;;5083618;28;20028;-56
2023/01/29 01:42:58;;;;;;;15.10;10.00;;;4.50;90.00;;;;;;5084871;28;20028;-56
2023/01/29 01:45:29;;;;;;;15.25;10.25;;;4.50;90.00;;;;;;5083807;28;20492;-59
2023/01/29 01:48:16;;;;;;;15.93;10.02;;;4.50;90.00;;;;;;5083697;28;20044;-56
2023/01/29 01:50:44;;;;;;;13.68;9.85;;;4.50;90.10;;;;;;5084835;28;20059;-56
2023/01/29 01:53:12;;;;;;;16.60;10.07;;;4.40;90.00;;;;;;5084812;28;20025;-56
2023/01/29 01:55:41;;;;;;;14.80;10.45;;;4.40;90.00;;;;;;5083571;28;20036;-56
2023/01/29 01:58:12;;;;;;;16.00;10.77;;;4.40;90.00;;;;;;5083914;28;20035;-56
2023/01/29 02:00:38;;;;;;;14.93;9.90;;;4.40;90.00;;;;;;5083704;28;20033;-56
2023/01/29 02:11:22;;;;;;;16.27;10.50;;;4.40;90.00;;;;;;5083669;28;20031;-56
2023/01/29 02:13:52;;;;;;;14.20;10.25;;;4.40;90.00;;;;;;5083173;28;20368;-56
2023/01/29 02:16:21;;;;;;;15.02;10.27;;;4.40;90.00;;;;;;5083158;28;20031;-57
2023/01/29 02:18:46;;;;;;;14.90;10.18;;;4.40;90.00;;;;;;5084524;28;20043;-56
2023/01/29 02:21:27;;;;;;;13.23;9.40;;;4.40;90.00;;;;;;5083375;28;20068;-57
2023/01/29 02:24:03;;;;;;;16.02;10.90;;;4.40;90.10;;;;;;5084477;28;20021;-57
2023/01/29 02:26:36;;;;;;;17.13;10.35;;;4.40;90.10;;;;;;5083167;28;20057;-56
2023/01/29 02:29:29;;;;;;;14.95;10.63;;;4.40;90.10;;;;;;5083335;28;20174;-56
2023/01/29 02:32:16;;;;;;;15.93;9.88;;;4.40;90.10;;;;;;5068924;28;20097;-57
2023/01/29 02:37:35;;;;;;;15.45;9.70;;;4.40;90.10;;;;;;5084517;28;20093;-58
2023/01/29 02:40:13;;;;;;;15.90;9.60;;;4.40;90.00;;;;;;5082847;28;20027;-56
2023/01/29 02:43:01;;;;;;;14.45;9.85;;;4.40;90.10;;;;;;5083312;28;20038;-56
2023/01/29 02:45:32;;;;;;;14.27;9.82;;;4.40;90.00;;;;;;5083331;28;20055;-56
2023/01/29 02:47:59;;;;;;;14.75;9.27;;;4.30;90.00;;;;;;5082904;28;20127;-57
2023/01/29 02:50:30;;;;;;;11.60;8.63;;;4.40;90.10;;;;;;5083084;28;20044;-56
2023/01/29 02:52:58;;;;;;;14.18;10.15;;;4.40;90.10;;;;;;5082955;28;20032;-56
2023/01/29 02:55:44;;;;;;;12.63;9.85;;;4.30;90.00;;;;;;5084458;28;20418;-56
2023/01/29 02:58:31;;;;;;;12.05;9.35;;;4.40;90.10;;;;;;5083708;28;20024;-56
2023/01/29 03:01:00;;;;;;;14.65;9.88;;;4.30;90.00;;;;;;5069986;28;20056;-56
2023/01/29 03:03:30;;;;;;;13.23;9.98;;;4.40;90.00;;;;;;5086554;28;20029;-56
2023/01/29 03:06:05;;;;;;;14.85;10.00;;;4.40;90.00;;;;;;5069706;28;20032;-56
2023/01/29 03:08:36;;;;;;;13.30;9.57;;;4.30;90.00;;;;;;5086651;28;20025;-56
2023/01/29 03:11:05;;;;;;;12.95;9.68;;;4.30;89.90;;;;;;5086468;28;20126;-56
2023/01/29 03:14:12;;;;;;;12.52;9.35;;;4.40;90.00;;;;;;5086324;28;20028;-56
2023/01/29 03:16:50;;;;;;;;;;;4.40;90.00;;;;;;5057167;28;20036;-57
2023/01/29 03:19:30;;;;;;;13.93;9.38;;;4.30;89.90;;;;;;5086168;28;19913;-57
2023/01/29 03:21:59;;;;;;;15.88;10.02;;;4.30;89.90;;;;;;5086284;28;20047;-56
2023/01/29 03:32:51;;;;;;;12.77;9.13;;;4.30;90.00;;;;;;5086493;28;20036;-56
2023/01/29 03:35:32;;;;;;;11.90;9.65;;;4.30;90.00;;;;;;5085979;28;20032;-56
2023/01/29 03:37:58;;;;;;;14.13;9.60;;;4.30;90.00;;;;;;5086125;28;20064;-56
2023/01/29 03:40:23;;;;;;;14.25;9.32;;;4.30;89.90;;;;;;5085827;28;20032;-57
2023/01/29 03:42:55;;;;;;;11.60;9.05;;;4.30;89.90;;;;;;5085790;28;20017;-56
2023/01/29 03:45:28;;;;;;;12.25;9.23;;;4.30;89.90;;;;;;5085591;28;20036;-57
2023/01/29 03:48:24;;;;;;;12.10;9.50;;;4.30;89.90;;;;;;5085541;28;20115;-57
2023/01/29 03:51:02;;;;;;;13.13;9.18;;;4.30;90.00;;;;;;5085754;28;20056;-56
2023/01/29 03:53:35;;;;;;;13.43;9.23;;;4.30;89.90;;;;;;5069203;28;20025;-56
2023/01/29 03:56:18;;;;;;;14.00;9.35;;;4.30;89.90;;;;;;5085468;28;20032;-56
2023/01/29 03:59:01;;;;;;;12.77;9.18;;;4.30;89.90;;;;;;5086611;28;20044;-56
2023/01/29 04:01:34;;;;;;;12.27;9.02;;;4.30;90.00;;;;;;5085015;28;20081;-56
2023/01/29 04:04:06;;;;;;;13.50;9.25;;;4.30;89.90;;;;;;5085303;28;20028;-56
2023/01/29 04:06:33;;;;;;;12.50;9.20;;;4.30;89.90;;;;;;5086551;28;20036;-56
2023/01/29 04:09:39;;;;;;;12.23;9.65;;;4.30;89.90;;;;;;5085008;28;20115;-57
2023/01/29 04:12:08;;;;;;;12.35;9.25;;;4.30;89.80;;;;;;5027856;28;20030;-56
2023/01/29 04:14:33;;;;;;;11.57;9.00;;;4.30;89.70;;;;;;5062170;28;20134;-56
2023/01/29 04:17:00;;;;;;;12.32;9.57;;;4.30;89.70;;;;;;5084726;28;20503;-56
2023/01/29 04:19:25;;;;;;;11.98;9.82;;;4.30;89.80;;;;;;5084863;28;20067;-57
2023/01/29 04:21:55;;;;;;;11.38;9.13;;;4.30;89.80;;;;;;5067680;28;20017;-56
2023/01/29 04:24:21;;;;;;;12.00;9.32;;;4.30;89.80;;;;;;5084963;28;20040;-56
2023/01/29 04:27:09;;;;;;;12.98;9.57;;;4.50;89.90;;;;;;5084645;28;20025;-56
2023/01/29 04:29:38;;;;;;;12.50;9.52;;;4.30;89.70;;;;;;5068989;28;20592;-56
2023/01/29 04:32:24;;;;;;;14.23;9.32;;;4.30;89.60;;;;;;5084773;28;20046;-56
2023/01/29 04:34:57;;;;;;;12.27;9.38;;;4.30;89.60;;;;;;5085529;28;20444;-56
2023/01/29 04:37:39;;;;;;;12.18;9.40;;;4.30;89.60;;;;;;5084876;28;20032;-56
2023/01/29 04:40:17;;;;;;;11.57;8.80;;;4.30;89.60;;;;;;5067771;28;20039;-56
2023/01/29 04:43:19;;;;;;;13.77;10.07;;;4.30;89.60;;;;;;5084508;28;20024;-56
2023/01/29 04:46:06;;;;;;;14.30;10.18;;;4.30;89.50;;;;;;5070485;28;20028;-58
2023/01/29 04:48:44;;;;;;;12.05;9.63;;;4.30;89.50;;;;;;5084217;28;20032;-56
2023/01/29 04:51:12;;;;;;;11.07;8.63;;;4.30;89.50;;;;;;5085817;28;20104;-56
2023/01/29 04:53:43;;;;;;;13.93;9.77;;;4.30;89.60;;;;;;5084062;28;20023;-56
2023/01/29 04:56:14;;;;;;;11.35;9.63;;;4.30;89.50;;;;;;5084284;28;20039;-56
2023/01/29 04:58:42;;;;;;;14.02;10.20;;;4.30;89.50;;;;;;5085325;28;20017;-56
2023/01/29 05:01:10;;;;;;;12.13;9.75;;;4.30;89.40;;;;;;5084455;28;20036;-56
2023/01/29 05:03:35;;;;;;;12.77;8.77;;;4.30;89.40;;;;;;5084227;28;20152;-56
2023/01/29 05:06:01;;;;;;;11.70;9.27;;;4.30;89.40;;;;;;5083951;28;20036;-56
2023/01/29 05:08:27;;;;;;;14.85;9.32;;;4.30;89.50;;;;;;5084059;28;20024;-56
2023/01/29 05:10:53;;;;;;;12.52;9.88;;;4.30;89.50;;;;;;5084055;28;20111;-57
2023/01/29 05:13:19;;;;;;;12.55;9.48;;;4.30;89.40;;;;;;5067105;28;20021;-56
2023/01/29 05:16:08;;;;;;;13.90;9.48;;;4.30;89.30;;;;;;5083894;28;20128;-56
2023/01/29 05:18:33;;;;;;;12.48;9.50;;;4.30;89.20;;;;;;5078166;28;20083;-56
2023/01/29 05:21:02;;;;;;;15.43;9.80;;;4.30;89.30;;;;;;5083466;28;20123;-56
2023/01/29 05:23:28;;;;;;;12.38;9.55;;;4.30;89.20;;;;;;5083903;28;20050;-56
2023/01/29 05:25:54;;;;;;;14.25;10.13;;;4.30;89.30;;;;;;5084007;28;20601;-56
2023/01/29 05:28:19;;;;;;;11.60;8.80;;;4.30;89.30;;;;;;5084041;28;20050;-57
2023/01/29 05:30:49;;;;;;;11.40;9.07;;;4.20;89.20;;;;;;5083873;28;20469;-56
2023/01/29 05:33:19;;;;;;;12.15;9.05;;;4.30;89.20;;;;;;5083848;28;20132;-56
2023/01/29 05:35:45;;;;;;;11.43;9.63;;;4.30;89.30;;;;;;5066904;28;20123;-56
2023/01/29 05:38:11;;;;;;;11.73;9.10;;;4.20;89.10;;;;;;5083265;28;20051;-56
2023/01/29 05:40:37;;;;;;;12.40;9.27;;;4.30;89.20;;;;;;5083549;28;20020;-56
2023/01/29 05:43:03;;;;;;;12.05;9.48;;;4.20;89.20;;;;;;5066863;28;20086;-56
2023/01/29 05:45:29;;;;;;;14.07;9.98;;;4.30;89.20;;;;;;5083560;28;20404;-56
2023/01/29 05:47:58;;;;;;;12.57;9.90;;;4.30;89.20;;;;;;5083545;28;20096;-57
2023/01/29 05:50:24;;;;;;;12.45;9.13;;;4.30;89.10;;;;;;5085510;28;20037;-56
2023/01/29 05:52:54;;;;;;;10.23;8.90;;;4.30;89.10;;;;;;5066979;28;20113;-56
2023/01/29 05:55:20;;;;;;;12.13;9.07;;;4.30;89.10;;;;;;5083575;28;20036;-57
2023/01/29 05:57:45;;;;;;;11.18;9.20;;;4.30;89.00;;;;;;5084622;28;20090;-56
2023/01/29 06:00:11;;;;;;;10.10;8.43;;;4.30;89.00;;;;;;5083347;28;20033;-57
2023/01/29 06:02:37;;;;;;;12.98;9.60;;;4.30;89.00;;;;;;5084843;28;20020;-56
2023/01/29 06:05:03;;;;;;;11.82;9.70;;;4.30;89.00;;;;;;5066762;28;20033;-56
2023/01/29 06:07:29;;;;;;;10.75;9.10;;;4.30;89.00;;;;;;5084783;28;20040;-57
2023/01/29 06:09:54;;;;;;;12.75;8.98;;;4.30;89.00;;;;;;5083437;28;20063;-56
2023/01/29 06:12:20;;;;;;;11.90;9.32;;;4.30;89.00;;;;;;5083267;28;20128;-56
2023/01/29 06:14:45;;;;;;;11.02;9.40;;;4.30;88.90;;;;;;5084655;28;20037;-57
2023/01/29 06:17:11;;;;;;;12.68;9.35;;;4.30;88.90;;;;;;5083583;28;20036;-56
2023/01/29 06:19:36;;;;;;;15.00;9.98;;;4.30;88.80;;;;;;5083169;28;20025;-56
2023/01/29 06:22:02;;;;;;;12.10;9.30;;;4.30;88.80;;;;;;5084616;28;20488;-57
2023/01/29 06:24:27;;;;;;;11.93;8.70;;;4.30;89.00;;;;;;5084468;28;20037;-56
2023/01/29 06:26:53;;;;;;;11.73;9.20;;;4.30;89.60;;;;;;5083142;28;20055;-56
2023/01/29 06:29:18;;;;;;;14.60;9.38;;;4.30;89.00;;;;;;5083023;28;20131;-56
2023/01/29 06:31:44;;;;;;;11.00;8.75;;;4.40;89.10;;;;;;5083197;28;20031;-56
2023/01/29 06:34:09;;;;;;;12.20;9.20;;;4.30;89.10;;;;;;5085682;28;20467;-57
2023/01/29 06:36:35;;;;;;;11.65;8.98;;;4.40;89.40;;;;;;5086909;28;20448;-56
2023/01/29 06:39:01;;;;;;;12.52;9.13;;;4.40;89.60;;;;;;5086920;28;20396;-56
2023/01/29 06:41:27;;;;;;;12.65;9.65;;;4.40;89.60;;;;;;5086989;28;20032;-56
2023/01/29 06:43:52;;;;;;;13.88;9.35;;;4.40;89.50;;;;;;5086503;28;20025;-56
2023/01/29 06:46:18;;;;;;;12.10;9.20;;;4.40;89.40;;;;;;5069973;28;20016;-57
2023/01/29 06:48:44;;;;;;;12.13;9.27;;;4.40;89.40;;;;;;5087867;28;20036;-57
2023/01/29 06:51:09;;;;;;;12.35;9.18;;;4.40;89.50;;;;;;5086787;28;20021;-56
2023/01/29 06:53:35;;;;;;;12.88;9.30;;;4.40;89.40;;;;;;5087887;28;20099;-56
2023/01/29 06:56:01;;;;;;;11.40;9.60;;;4.40;89.30;;;;;;5086629;28;20534;-57
2023/01/29 06:58:27;;;;;;;12.20;9.50;;;4.40;89.30;;;;;;5086391;28;20025;-56
2023/01/29 07:00:52;;;;;;;12.80;9.80;;;4.40;89.20;;;;;;5086543;28;20088;-56
2023/01/29 07:03:18;;;;;;;12.80;9.77;;;4.40;89.10;;;;;;5086392;28;20016;-57
2023/01/29 07:05:49;;;;;;;11.88;9.50;;;4.40;89.20;;;;;;5087843;28;20024;-56
2023/01/29 07:08:15;;;;;;;13.77;10.35;;;4.40;89.20;;;;;;5086262;28;20032;-56
2023/01/29 07:10:40;;;;;;;11.02;9.35;;;4.40;89.10;;;;;;5087771;28;20033;-56
2023/01/29 07:13:06;;;;;;;10.30;8.75;;;4.40;89.10;;;;;;5087710;28;20361;-57
2023/01/29 07:15:31;;;;;;;12.10;9.90;;;4.40;89.10;;;;;;5087746;28;20445;-56
2023/01/29 07:17:58;;;;;;;11.50;8.80;;;4.50;89.10;;;;;;5086267;28;20465;-56
2023/01/29 07:20:25;;;;;;;12.52;9.88;;;4.40;89.00;;;;;;5086527;28;20055;-56
2023/01/29 07:22:50;;;;;;;13.02;8.68;;;4.40;89.00;;;;;;5086149;28;20048;-56
2023/01/29 07:25:16;;;;;;;14.68;9.57;;;4.40;89.00;;;;;;5086183;28;20033;-57
2023/01/29 07:27:42;;;;;;;14.48;9.88;;;4.50;89.00;;;;;;5085946;28;20025;-56
2023/01/29 07:30:08;;;;;;;11.57;9.63;;;4.40;89.00;;;;;;5086196;28;20055;-56
2023/01/29 07:32:33;;;;;;;11.88;9.10;;;4.40;88.80;;;;;;5085675;28;20476;-56
2023/01/29 07:34:59;;;;;;;16.23;9.98;;;4.40;88.90;;;;;;5085870;28;20043;-56
2023/01/29 07:37:25;;;;;;;12.88;9.30;;;4.50;89.60;;;;;;5085769;28;20119;-56
2023/01/29 07:39:50;;;;;;;12.43;9.55;;;4.50;88.80;;;;;;5085866;28;20354;-56
2023/01/29 07:42:16;;;;;;;11.45;8.98;;;4.50;88.70;;;;;;5068933;28;20463;-56
2023/01/29 07:44:41;;;;;;;10.77;9.18;;;4.50;88.70;;;;;;5085401;28;20021;-56
2023/01/29 07:47:07;;;;;;;14.77;10.10;;;4.50;88.70;;;;;;5085470;28;20064;-56
2023/01/29 07:49:32;;;;;;;12.55;9.65;;;4.50;88.70;;;;;;5085569;28;20048;-57
2023/01/29 07:51:58;;;;;;;12.55;9.80;;;4.50;88.60;;;;;;5085469;28;20031;-56
2023/01/29 07:54:23;;;;;;;13.85;9.88;;;4.40;88.40;;;;;;5086789;28;20036;-56
2023/01/29 07:56:49;;;;;;;13.98;10.48;;;4.50;88.60;;;;;;5086689;28;20025;-56
2023/01/29 07:59:15;;;;;;;12.80;9.52;;;4.50;88.50;;;;;;5085403;28;20480;-56
2023/01/29 08:01:40;;;;;;;15.27;9.93;;;4.50;88.50;;;;;;5085568;28;20094;-56
2023/01/29 08:04:06;;;;;;;11.63;9.50;;;4.50;88.40;;;;;;5085402;28;20112;-56
2023/01/29 08:06:31;;;;;;;10.93;9.35;;;4.50;88.40;;;;;;5086650;28;20024;-57
2023/01/29 08:08:58;;;;;;;15.10;9.60;;;4.50;88.40;;;;;;5086806;28;20036;-56
2023/01/29 08:11:24;;;;;;;14.68;10.13;;;4.50;88.40;;;;;;5085010;28;20032;-56
2023/01/29 08:13:49;;;;;;;14.20;9.90;;;4.50;88.50;;;;;;5086287;28;20036;-57
2023/01/29 08:16:15;;;;;;;12.00;9.63;;;4.50;88.40;;;;;;5086187;28;20059;-57
2023/01/29 08:18:45;;;;;;;11.68;9.57;;;4.50;88.40;;;;;;5085026;28;20043;-56
2023/01/29 08:21:10;;;;;;;13.85;9.98;;;4.50;88.50;;;;;;5086237;28;20028;-56
2023/01/29 08:23:36;;;;;;;12.07;9.68;;;4.60;88.50;;;;;;5084815;28;20028;-56
2023/01/29 08:26:02;;;;;;;13.77;10.20;;;4.60;88.50;;;;;;5086226;28;20020;-56
2023/01/29 08:28:27;;;;;;;13.63;10.52;;;4.60;88.30;;;;;;5084465;28;20040;-56
2023/01/29 08:30:53;;;;;;;12.02;9.85;;;4.50;88.30;;;;;;5084804;28;20153;-57
2023/01/29 08:33:19;;;;;;;11.90;9.38;;;4.60;88.40;;;;;;5084679;28;20074;-56
2023/01/29 08:35:48;;;;;;;11.90;9.80;;;4.60;88.40;;;;;;5084835;28;20044;-56
2023/01/29 08:38:14;;;;;;;15.07;10.80;;;4.60;88.30;;;;;;5084596;28;20032;-56
2023/01/29 08:40:39;;;;;;;12.32;9.77;;;4.60;88.30;;;;;;5084849;28;20036;-56
2023/01/29 08:43:05;;;;;;;11.88;9.52;;;4.60;88.30;;;;;;5084717;28;20024;-57
2023/01/29 08:45:36;;;;;;;11.93;9.20;;;4.60;88.20;;;;;;5084737;28;20028;-56
2023/01/29 08:48:01;;;;;;;12.23;8.90;;;4.60;88.20;;;;;;5084537;28;20039;-56
2023/01/29 08:50:29;;;;;;;12.93;10.35;;;4.60;88.10;;;;;;5084234;28;20025;-57
2023/01/29 08:52:58;;;;;;;11.98;9.70;;;4.60;88.00;;;;;;5084270;28;20092;-56
2023/01/29 08:55:24;;;;;;;10.55;9.43;;;4.60;88.00;;;;;;5084621;28;20048;-57
2023/01/29 08:57:50;;;;;;;12.90;9.63;;;4.60;87.90;;;;;;5067162;28;20024;-56
2023/01/29 09:00:15;;;;;;;13.98;9.20;;;4.60;87.90;;;;;;5085377;28;20037;-56
2023/01/29 09:02:41;;;;;;;11.60;9.50;;;4.60;87.90;;;;;;5085046;28;20119;-56
2023/01/29 09:05:07;;;;;;;12.38;9.80;;;4.60;87.80;;;;;;5085462;28;20048;-56
2023/01/29 09:07:33;;;;;;;11.95;9.23;;;4.60;87.70;;;;;;5083640;28;20032;-56
2023/01/29 09:09:58;;;;;;;14.20;9.85;;;4.60;87.70;;;;;;5083661;28;20032;-56
2023/01/29 09:12:24;;;;;;;11.50;9.10;;;4.60;87.70;;;;;;5083640;28;20108;-56
2023/01/29 09:14:49;;;;;;;12.10;9.23;;;4.60;87.60;;;;;;5083341;28;20028;-56
2023/01/29 09:17:15;;;;;;;17.17;9.90;;;4.60;87.60;;;;;;5085086;28;20032;-57
2023/01/29 09:19:40;;;;;;;14.30;9.73;;;4.60;87.50;;;;;;5085120;28;20167;-56
2023/01/29 09:22:06;;;;;;;14.57;9.55;;;4.60;87.50;;;;;;5085307;28;20020;-56
2023/01/29 09:24:33;;;;;;;14.35;10.23;;;4.70;87.50;;;;;;5083953;28;20039;-57
2023/01/29 09:26:59;;;;;;;16.70;10.80;;;4.70;87.50;;;;;;5084453;28;20036;-56
2023/01/29 09:29:25;;;;;;;16.95;9.10;;;4.70;88.10;;;;;;5083247;28;20056;-56
2023/01/29 09:31:50;;;;;;;15.10;10.02;;;4.70;87.60;;;;;;5066269;28;20017;-57
2023/01/29 09:34:16;;;;;;;17.95;10.23;;;4.70;87.60;;;;;;5084504;28;20046;-56
2023/01/29 09:36:41;;;;;;;18.35;10.88;;;4.70;87.40;;;;;;5083241;28;20048;-56
2023/01/29 09:39:07;;;;;;;25.27;9.95;;;4.70;87.60;;;;;;5084994;28;20039;-57
2023/01/29 09:41:54;;;;;;;34.85;12.32;;;4.70;87.50;;;;;;5084451;28;20069;-57
2023/01/29 09:44:46;;;;;;;36.97;10.85;;;4.80;87.50;;;;;;5084605;28;20036;-57
2023/01/29 09:47:13;;;;;;;44.75;13.85;;;4.80;87.40;;;;;;5082853;28;20024;-56
2023/01/29 09:49:42;;;;;;;48.80;12.98;;;4.80;88.10;;;;;;5083062;28;20143;-56
2023/01/29 09:52:13;;;;;;;64.82;15.18;;;4.80;87.60;;;;;;5083357;28;20094;-56
2023/01/29 09:55:07;;;;;;;50.60;14.20;;;4.90;87.60;;;;;;5083598;28;20120;-56
2023/01/29 09:57:45;;;;;;;54.53;13.80;;;4.90;87.60;;;;;;5082805;28;20376;-57
2023/01/29 10:00:35;;;;;;;51.10;14.40;;;4.90;87.50;;;;;;5083050;28;20044;-56
2023/01/29 10:03:52;;;;;;;89.93;16.95;;;5.00;87.40;;;;;;5083313;28;20020;-56
2023/01/29 10:06:48;;;;;;;74.60;17.67;;;5.00;87.50;;;;;;5041806;28;20030;-57
2023/01/29 10:09:32;;;;;;;58.92;14.43;;;5.00;87.50;;;;;;5087374;28;20048;-56
2023/01/29 10:12:13;;;;;;;91.95;15.70;;;5.10;87.70;;;;;;5088762;28;20021;-56
2023/01/29 10:14:53;;;;;;;86.22;16.13;;;5.10;87.50;;;;;;5071293;28;20039;-57
2023/01/29 10:17:27;;;;;;;70.82;14.98;;;5.10;87.40;;;;;;5088487;28;20046;-57
2023/01/29 10:20:05;;;;;;;100.35;21.00;;;5.10;87.40;;;;;;5088228;28;20040;-57
2023/01/29 10:22:42;;;;;;;92.45;17.50;;;5.10;87.50;;;;;;5088210;28;20337;-57
2023/01/29 10:25:10;;;;;;;70.05;17.05;;;5.20;87.40;;;;;;5088295;28;20035;-56
2023/01/29 10:27:38;;;;;;;67.65;14.95;;;5.20;87.10;;;;;;5086806;28;20028;-56
2023/01/29 10:30:16;;;;;;;76.15;15.75;;;5.20;87.10;;;;;;5086946;28;20029;-56
2023/01/29 10:32:41;;;;;;;68.35;15.63;;;5.20;87.10;;;;;;5087699;28;20054;-56
2023/01/29 10:35:21;;;;;;;65.43;15.93;;;5.20;86.90;;;;;;5086445;28;20425;-56
2023/01/29 10:37:46;;;;;;;143.30;21.90;;;5.20;87.00;;;;;;5086181;28;20033;-57
2023/01/29 10:40:22;;;;;;;95.82;19.10;;;5.30;87.10;;;;;;5069586;28;20029;-56
2023/01/29 10:43:07;;;;;;;82.88;17.35;;;5.30;87.00;;;;;;5086111;28;20107;-57
2023/01/29 10:46:09;;;;;;;54.53;15.45;;;5.30;86.80;;;;;;5086646;28;20066;-56
2023/01/29 10:48:43;;;;;;;67.05;14.60;;;5.30;86.60;;;;;;5085596;28;20091;-56
2023/01/29 10:51:28;;;;;;;61.83;15.60;;;5.30;86.60;;;;;;5085888;28;20081;-56
2023/01/29 10:54:37;;;;;;;77.50;15.65;;;5.30;86.70;;;;;;5086195;28;20082;-56
2023/01/29 10:57:14;;;;;;;66.32;15.02;;;5.40;86.70;;;;;;5085729;28;20033;-57
2023/01/29 10:59:47;;;;;;;65.43;15.55;;;5.30;86.50;;;;;;5086200;28;20028;-57
2023/01/29 11:02:16;;;;;;;66.07;15.02;;;5.40;86.70;;;;;;5086043;28;20024;-56
2023/01/29 11:04:42;;;;;;;71.43;14.52;;;5.40;87.20;;;;;;5098434;28;20016;-56
2023/01/29 11:07:07;;;;;;;105.90;18.08;;;5.40;87.50;;;;;;5106561;28;20059;-56
2023/01/29 11:09:47;;;;;;;66.28;14.65;;;5.40;87.50;;;;;;5085714;28;20032;-56
2023/01/29 11:12:14;;;;;;;67.95;16.92;;;5.50;87.50;;;;;;5072742;28;20472;-56
2023/01/29 11:14:54;;;;;;;73.88;15.93;;;5.50;87.40;;;;;;5072219;28;20028;-56
2023/01/29 11:17:24;;;;;;;100.95;17.25;;;5.50;87.20;;;;;;5089695;28;20024;-56
2023/01/29 11:19:51;;;;;;;83.22;17.23;;;5.50;87.30;;;;;;5090298;28;20465;-56
2023/01/29 11:22:24;;;;;;;71.88;15.35;;;5.50;87.30;;;;;;5105817;28;20031;-57
2023/01/29 11:25:23;;;;;;;70.55;15.50;;;5.50;87.20;;;;;;5105821;28;20103;-57
2023/01/29 11:28:01;;;;;;;85.15;15.48;;;5.60;87.00;;;;;;5091092;28;20467;-57
2023/01/29 11:30:30;;;;;;;90.50;16.70;;;5.60;87.10;;;;;;5105327;28;20051;-57
2023/01/29 11:33:17;;;;;;;92.38;17.02;;;5.60;87.00;;;;;;5084512;28;20442;-56
2023/01/29 11:35:43;;;;;;;122.68;21.02;;;5.60;87.30;;;;;;5070291;28;20040;-57
2023/01/29 11:38:29;;;;;;;116.57;20.92;;;5.60;87.50;;;;;;5074995;28;20094;-57
2023/01/29 11:41:04;;;;;;;;;;;5.70;87.70;;;;;;5103868;28;20047;-56
2023/01/29 11:43:30;;;;;;;133.35;18.77;;;5.70;87.60;;;;;;5105350;28;19916;-56
2023/01/29 11:46:06;;;;;;;105.72;18.60;;;5.70;87.40;;;;;;5088717;28;20024;-56
2023/01/29 11:48:39;;;;;;;133.50;20.27;;;5.80;87.30;;;;;;5088661;28;20119;-57
2023/01/29 11:51:05;;;;;;;127.72;21.55;;;5.80;87.20;;;;;;5089331;28;20032;-56
2023/01/29 11:53:36;;;;;;;103.47;20.88;;;5.80;87.20;;;;;;5106426;28;20047;-57
2023/01/29 11:56:04;;;;;;;101.15;19.83;;;5.80;87.40;;;;;;5106966;28;20035;-56
2023/01/29 11:58:31;;;;;;;104.88;20.00;;;5.80;87.40;;;;;;5088776;28;20105;-56
2023/01/29 12:00:57;;;;;;;108.82;18.45;;;5.80;87.50;;;;;;5088330;28;20028;-57
2023/01/29 12:03:44;;;;;;;138.95;22.15;;;5.90;87.40;;;;;;5088297;28;20051;-57
2023/01/29 12:06:23;;;;;;;145.70;24.35;;;5.90;87.30;;;;;;5106579;28;20108;-57
2023/01/29 12:08:57;;;;;;;167.18;22.55;;;5.90;87.60;;;;;;5088188;28;20044;-57
2023/01/29 12:11:23;;;;;;;122.70;20.13;;;5.90;87.70;;;;;;5088428;28;20043;-56
2023/01/29 12:13:57;;;;;;;177.02;23.33;;;6.00;87.70;;;;;;5104905;28;20024;-57
2023/01/29 12:16:35;;;;;;;144.20;22.05;;;6.00;87.70;;;;;;5087790;28;20366;-57
2023/01/29 12:19:27;;;;;;;104.80;20.58;;;6.00;87.60;;;;;;5088580;28;20038;-56
2023/01/29 12:22:26;;;;;;;142.48;20.60;;;6.10;87.80;;;;;;5089519;28;20032;-57
2023/01/29 12:25:20;;;;;;;211.90;23.17;;;6.10;88.00;;;;;;5104809;28;20047;-57
2023/01/29 12:27:50;;;;;;;120.22;21.20;;;6.10;87.90;;;;;;5102158;28;20040;-56
2023/01/29 12:30:35;;;;;;;138.05;21.92;;;6.10;87.90;;;;;;5086785;28;20051;-56
2023/01/29 12:33:23;;;;;;;121.57;22.27;;;6.20;88.00;;;;;;5088547;28;20161;-56
2023/01/29 12:36:29;;;;;;;174.70;22.63;;;6.20;87.90;;;;;;5104337;28;20040;-56
2023/01/29 12:38:54;;;;;;;165.90;24.15;;;6.20;87.90;;;;;;5046129;28;20072;-56
2023/01/29 12:41:43;;;;;;;185.77;24.65;;;6.20;88.10;;;;;;5098085;28;20040;-56
2023/01/29 12:44:45;;;;;;;176.02;25.45;;;6.30;88.30;;;;;;5071954;28;20035;-57
2023/01/29 12:47:18;;;;;;;196.85;30.05;;;6.30;88.40;;;;;;5093856;28;20036;-56
2023/01/29 12:49:44;;;;;;;209.50;28.80;;;6.30;88.60;;;;;;5103874;28;20031;-56
2023/01/29 12:52:16;;;;;;;216.68;28.35;;;6.40;88.50;;;;;;5070394;28;20016;-56
2023/01/29 12:54:54;;;;;;;220.20;28.70;;;6.40;88.20;;;;;;5103828;28;20032;-56
2023/01/29 12:57:41;;;;;;;280.45;33.85;;;6.50;88.20;;;;;;5103974;28;20024;-57
2023/01/29 13:00:18;;;;;;;238.38;32.30;;;6.50;88.30;;;;;;5086934;28;20054;-57
2023/01/29 13:02:51;;;;;;;245.05;32.72;;;6.50;88.00;;;;;;5087572;28;20020;-56
2023/01/29 13:05:25;;;;;;;516.88;62.15;;;6.50;87.60;;;;;;5087556;28;20123;-57
2023/01/29 13:07:55;;;;;;;265.73;34.03;;;6.60;87.50;;;;;;5085218;28;20105;-57
2023/01/29 13:10:25;;;;;;;304.52;37.38;;;6.60;87.40;;;;;;5101562;28;20320;-57
2023/01/29 13:13:00;;;;;;;352.58;44.15;;;6.60;87.50;;;;;;5086873;28;20065;-56
2023/01/29 13:15:37;;;;;;;312.98;38.00;;;6.70;87.50;;;;;;5085973;28;20036;-57
2023/01/29 13:18:31;;;;;;;240.55;32.40;;;6.70;87.50;;;;;;5100218;28;20190;-60
2023/01/29 13:20:57;;;;;;;500.25;59.58;;;6.80;87.40;;;;;;5104669;28;20157;-56
2023/01/29 13:23:27;;;;;;;231.43;31.58;;;6.80;87.10;;;;;;5103526;28;20027;-56
2023/01/29 13:25:53;;;;;;;227.40;30.65;;;6.80;86.80;;;;;;5103409;28;20059;-56
2023/01/29 13:28:20;;;;;;;180.57;28.27;;;6.70;86.60;;;;;;5103286;28;20028;-56
2023/01/29 13:30:45;;;;;;;234.48;28.65;;;6.80;86.80;;;;;;5102893;28;20050;-56